Time;durP1;ratioP1;P1;durP2;ratioP2;P2;SDS_P1;SDS_P2;PMS_P1;PMS_P2;Temp;Humidity;BMP_temperature;BMP_pressure;BME280_temperature;BME280_humidity;BME280_pressure;Samples;Min_cycle;Max_cycle;Signal;HPM_P1;HPM_P2
2023/01/28 00:00:54;;;;;;;1.83;1.07;;;;;;;;;;5094417;28;20023;-59
2023/01/28 00:03:19;;;;;;;2.97;0.80;;;;;;;;;;5094356;28;20015;-59
2023/01/28 00:05:45;;;;;;;3.53;1.10;;;;;;;;;;5093581;28;20059;-59
2023/01/28 00:08:12;;;;;;;6.20;1.57;;;;;;;;;;5094024;28;20016;-58
2023/01/28 00:10:38;;;;;;;3.03;1.10;;;;;;;;;;5093926;28;20022;-61
2023/01/28 00:13:04;;;;;;;4.37;2.23;;;;;;;;;;5094730;28;20008;-58
2023/01/28 00:15:30;;;;;;;4.57;1.10;;;;;;;;;;5097027;28;20110;-62
2023/01/28 00:17:55;;;;;;;5.33;1.33;;;;;;;;;;5096296;28;20012;-59
2023/01/28 00:20:20;;;;;;;6.33;1.83;;;;;;;;;;5095041;28;20023;-57
2023/01/28 00:22:49;;;;;;;4.13;1.30;;;;;;;;;;5092536;28;20013;-58
2023/01/28 00:25:14;;;;;;;2.43;1.00;;;;;;;;;;5092618;28;20024;-57
2023/01/28 00:27:40;;;;;;;4.03;1.40;;;;;;;;;;5092702;28;20111;-57
2023/01/28 00:30:06;;;;;;;2.80;1.33;;;;;;;;;;5092972;28;20032;-58
2023/01/28 00:32:31;;;;;;;2.27;0.97;;;;;;;;;;5094432;28;20027;-57
2023/01/28 00:34:57;;;;;;;3.57;1.13;;;;;;;;;;5093182;28;20024;-57
2023/01/28 00:37:22;;;;;;;1.93;0.90;;;;;;;;;;5093331;28;20016;-58
2023/01/28 00:39:48;;;;;;;2.00;0.73;;;;;;;;;;5091985;28;20024;-58
2023/01/28 00:42:13;;;;;;;2.73;1.00;;;;;;;;;;5093608;28;20026;-58
2023/01/28 00:44:39;;;;;;;1.70;0.80;;;;;;;;;;5091933;28;20444;-59
2023/01/28 00:47:04;;;;;;;2.77;0.87;;;;;;;;;;5093530;28;20064;-57
2023/01/28 00:49:30;;;;;;;1.23;0.63;;;;;;;;;;5093472;28;20008;-61
2023/01/28 00:51:55;;;;;;;2.10;0.70;;;;;;;;;;5094516;28;20114;-58
2023/01/28 00:54:21;;;;;;;3.10;0.77;;;;;;;;;;5092223;28;20023;-61
2023/01/28 00:56:46;;;;;;;3.80;0.70;;;;;;;;;;5093596;28;20384;-57
2023/01/28 00:59:12;;;;;;;4.53;1.00;;;;;;;;;;5093753;28;20032;-57
2023/01/28 01:01:38;;;;;;;2.77;0.67;;;;;;;;;;5096336;28;20008;-59
2023/01/28 01:04:05;;;;;;;3.47;0.77;;;;;;;;;;5096068;28;20031;-60
2023/01/28 01:06:34;;;;;;;2.00;0.53;;;;;;;;;;5100096;28;20105;-60
2023/01/28 01:09:01;;;;;;;2.00;0.70;;;;;;;;;;5096782;28;20472;-62
2023/01/28 01:11:26;;;;;;;0.47;0.27;;;;;;;;;;5097608;28;20469;-60
2023/01/28 01:13:56;;;;;;;1.23;0.50;;;;;;;;;;5097470;28;20031;-57
2023/01/28 01:16:23;;;;;;;2.15;0.40;;;;;;;;;;5095873;28;20072;-57
2023/01/28 01:18:51;;;;;;;3.00;0.57;;;;;;;;;;5100709;28;20507;-60
2023/01/28 01:21:18;;;;;;;1.73;0.68;;;;;;;;;;5099827;28;20024;-58
2023/01/28 01:23:44;;;;;;;1.07;0.57;;;;;;;;;;5095814;28;20020;-57
2023/01/28 01:26:09;;;;;;;3.35;0.60;;;;;;;;;;5096806;28;20512;-57
2023/01/28 01:28:35;;;;;;;1.90;0.73;;;;;;;;;;5097562;28;20023;-61
2023/01/28 01:31:14;;;;;;;1.93;0.50;;;;;;;;;;5097409;28;20020;-61
2023/01/28 01:33:40;;;;;;;1.60;0.70;;;;;;;;;;5097097;28;20031;-58
2023/01/28 01:36:06;;;;;;;1.70;0.60;;;;;;;;;;5096958;28;20173;-57
2023/01/28 01:38:32;;;;;;;1.73;0.63;;;;;;;;;;5096727;28;20043;-59
2023/01/28 01:40:58;;;;;;;1.93;0.70;;;;;;;;;;5096611;28;20510;-57
2023/01/28 01:43:24;;;;;;;1.02;0.28;;;;;;;;;;5096423;28;20362;-59
2023/01/28 01:45:53;;;;;;;0.85;0.40;;;;;;;;;;5095264;28;20016;-60
2023/01/28 01:48:24;;;;;;;2.00;0.70;;;;;;;;;;5096419;28;20107;-63
2023/01/28 01:50:55;;;;;;;0.80;0.30;;;;;;;;;;5096367;28;20078;-58
2023/01/28 01:53:22;;;;;;;1.05;0.57;;;;;;;;;;5096045;28;20028;-57
2023/01/28 01:55:49;;;;;;;0.95;0.57;;;;;;;;;;5096214;28;20043;-57
2023/01/28 01:58:17;;;;;;;1.67;0.40;;;;;;;;;;5095277;28;20031;-58
2023/01/28 02:00:43;;;;;;;1.20;0.50;;;;;;;;;;5096408;28;20047;-59
2023/01/28 02:03:09;;;;;;;1.52;0.52;;;;;;;;;;5094824;28;20464;-57
2023/01/28 02:05:35;;;;;;;2.30;0.73;;;;;;;;;;5094844;28;20044;-58
2023/01/28 02:10:46;;;;;;;1.53;0.30;;;;;;;;;;5096101;28;20381;-58
2023/01/28 02:13:13;;;;;;;1.90;0.63;;;;;;;;;;5095741;28;20047;-57
2023/01/28 02:15:38;;;;;;;2.03;0.40;;;;;;;;;;5094076;28;20032;-57
2023/01/28 02:18:04;;;;;;;1.63;0.73;;;;;;;;;;5096788;28;20392;-65
2023/01/28 02:20:38;;;;;;;2.90;0.60;;;;;;;;;;5099095;28;20066;-58
2023/01/28 02:23:26;;;;;;;1.85;0.60;;;;;;;;;;5099296;28;20044;-59
2023/01/28 02:25:55;;;;;;;2.07;0.57;;;;;;;;;;5095342;28;20024;-59
2023/01/28 02:28:31;;;;;;;1.20;0.40;;;;;;;;;;5096533;28;20361;-59
2023/01/28 02:31:05;;;;;;;1.67;0.50;;;;;;;;;;5095085;28;20024;-59
2023/01/28 02:33:49;;;;;;;4.85;1.00;;;;;;;;;;5096018;28;20012;-57
2023/01/28 02:36:31;;;;;;;2.47;0.40;;;;;;;;;;5094685;28;20064;-59
2023/01/28 02:39:00;;;;;;;1.73;0.40;;;;;;;;;;5094048;28;20016;-57
2023/01/28 02:41:31;;;;;;;3.23;0.90;;;;;;;;;;5094418;28;20016;-61
2023/01/28 02:43:57;;;;;;;5.43;0.40;;;;;;;;;;5095520;28;20020;-58
2023/01/28 02:49:11;;;;;;;1.50;0.70;;;;;;;;;;5095236;28;20070;-57
2023/01/28 02:51:55;;;;;;;1.47;0.40;;;;;;;;;;5095782;28;20024;-59
2023/01/28 02:54:37;;;;;;;1.50;0.37;;;;;;;;;;5094205;28;20101;-58
2023/01/28 02:57:29;;;;;;;2.33;0.47;;;;;;;;;;5093762;28;20492;-59
2023/01/28 03:00:09;;;;;;;1.40;0.20;;;;;;;;;;5093873;28;20032;-56
2023/01/28 03:02:36;;;;;;;11.50;0.77;;;;;;;;;;5095318;28;20020;-58
2023/01/28 03:05:05;;;;;;;2.00;0.50;;;;;;;;;;5094682;28;20107;-59
2023/01/28 03:07:32;;;;;;;0.43;0.20;;;;;;;;;;5095356;28;20016;-59
2023/01/28 03:10:03;;;;;;;1.47;0.80;;;;;;;;;;5097903;28;20511;-62
2023/01/28 03:37:42;;;;;;;3.30;0.77;;;;;;;;;;5094120;28;20077;-57
2023/01/28 03:40:08;;;;;;;1.83;0.50;;;;;;;;;;5092571;28;20023;-63
2023/01/28 03:42:34;;;;;;;1.67;0.35;;;;;;;;;;5094186;28;20013;-58
2023/01/28 03:45:03;;;;;;;1.48;0.20;;;;;;;;;;5093914;28;20452;-57
2023/01/28 03:47:29;;;;;;;2.37;0.30;;;;;;;;;;5092421;28;20461;-57
2023/01/28 03:49:56;;;;;;;1.43;0.30;;;;;;;;;;5094925;28;20035;-58
2023/01/28 03:52:23;;;;;;;0.60;0.20;;;;;;;;;;5094400;28;20376;-57
2023/01/28 03:54:48;;;;;;;2.70;0.43;;;;;;;;;;5094412;28;20460;-58
2023/01/28 03:57:15;;;;;;;1.30;0.40;;;;;;;;;;5092528;28;20035;-58
2023/01/28 03:59:40;;;;;;;1.45;0.30;;;;;;;;;;5094156;28;20161;-57
2023/01/28 04:02:06;;;;;;;1.85;0.40;;;;;;;;;;5094807;28;20069;-58
2023/01/28 04:04:31;;;;;;;2.83;0.40;;;;;;;;;;5094436;28;20373;-60
2023/01/28 04:06:57;;;;;;;2.20;0.28;;;;;;;;;;5092697;28;20056;-58
2023/01/28 04:09:23;;;;;;;8.00;0.80;;;;;;;;;;5093161;28;20472;-57
2023/01/28 04:11:49;;;;;;;0.10;0.10;;;;;;;;;;5095079;28;20032;-58
2023/01/28 04:14:15;;;;;;;0.45;0.20;;;;;;;;;;5094897;28;20038;-58
2023/01/28 04:16:41;;;;;;;2.08;0.30;;;;;;;;;;5093042;28;20476;-59
2023/01/28 04:19:07;;;;;;;2.65;0.30;;;;;;;;;;5094227;28;20449;-56
2023/01/28 04:21:33;;;;;;;2.05;0.30;;;;;;;;;;5092412;28;20016;-57
2023/01/28 04:24:00;;;;;;;3.40;0.35;;;;;;;;;;5094252;28;20092;-59
2023/01/28 04:26:26;;;;;;;0.40;0.10;;;;;;;;;;5095060;28;20039;-63
2023/01/28 04:28:52;;;;;;;0.45;0.10;;;;;;;;;;5095782;28;20516;-61
2023/01/28 04:31:17;;;;;;;1.52;0.30;;;;;;;;;;5095405;28;20062;-58
2023/01/28 04:33:43;;;;;;;1.15;1.00;;;;;;;;;;5095165;28;20016;-57
2023/01/28 04:36:08;;;;;;;2.65;0.15;;;;;;;;;;5094300;28;20042;-58
2023/01/28 04:38:33;;;;;;;5.93;0.75;;;;;;;;;;5093113;28;20103;-59
2023/01/28 04:40:59;;;;;;;1.73;0.20;;;;;;;;;;5093619;28;20012;-58
2023/01/28 04:43:24;;;;;;;1.27;0.38;;;;;;;;;;5093620;28;20032;-58
2023/01/28 04:45:50;;;;;;;1.08;0.28;;;;;;;;;;5093788;28;20016;-66
2023/01/28 04:48:16;;;;;;;3.35;0.38;;;;;;;;;;5093578;28;20020;-59
2023/01/28 04:50:42;;;;;;;3.22;0.50;;;;;;;;;;5092780;28;20468;-57
2023/01/28 04:53:08;;;;;;;3.58;0.30;;;;;;;;;;5091591;28;20051;-58
2023/01/28 04:55:33;;;;;;;5.80;0.40;;;;;;;;;;5093161;28;20028;-56
2023/01/28 04:57:59;;;;;;;2.95;0.20;;;;;;;;;;5092826;28;20069;-59
2023/01/28 05:00:24;;;;;;;5.18;0.70;;;;;;;;;;5094661;28;20020;-60
2023/01/28 05:02:50;;;;;;;0.22;0.10;;;;;;;;;;5095040;28;20429;-65
2023/01/28 05:05:15;;;;;;;1.85;0.20;;;;;;;;;;5093538;28;20457;-57
2023/01/28 05:07:41;;;;;;;1.48;0.40;;;;;;;;;;5092591;28;20020;-58
2023/01/28 05:10:06;;;;;;;1.45;0.20;;;;;;;;;;5093122;28;20013;-62
2023/01/28 05:12:33;;;;;;;3.65;0.52;;;;;;;;;;5094732;28;20016;-59
2023/01/28 05:15:01;;;;;;;1.25;0.20;;;;;;;;;;5094039;28;20020;-57
2023/01/28 05:17:27;;;;;;;0.63;0.10;;;;;;;;;;5092968;28;20024;-57
2023/01/28 05:19:52;;;;;;;1.92;0.28;;;;;;;;;;5093597;28;20028;-62
2023/01/28 05:22:18;;;;;;;1.55;0.20;;;;;;;;;;5094958;28;20369;-58
2023/01/28 05:24:44;;;;;;;1.95;0.10;;;;;;;;;;5094766;28;20024;-60
2023/01/28 05:27:09;;;;;;;1.88;0.22;;;;;;;;;;5093375;28;20012;-59
2023/01/28 05:29:35;;;;;;;2.63;0.50;;;;;;;;;;5093184;28;20022;-59
2023/01/28 05:32:00;;;;;;;8.43;0.50;;;;;;;;;;5091715;28;20036;-57
2023/01/28 05:34:27;;;;;;;2.03;0.25;;;;;;;;;;5093735;28;20016;-58
2023/01/28 05:36:53;;;;;;;3.25;0.30;;;;;;;;;;5093489;28;20465;-62
2023/01/28 05:39:18;;;;;;;3.78;0.50;;;;;;;;;;5092352;28;20028;-58
2023/01/28 05:41:44;;;;;;;4.00;0.40;;;;;;;;;;5093803;28;20145;-59
2023/01/28 05:44:10;;;;;;;3.15;0.57;;;;;;;;;;5092303;28;20028;-59
2023/01/28 05:46:35;;;;;;;2.58;0.50;;;;;;;;;;5093568;28;20122;-59
2023/01/28 05:49:01;;;;;;;4.35;0.50;;;;;;;;;;5092547;28;20021;-59
2023/01/28 05:51:27;;;;;;;1.45;0.30;;;;;;;;;;5095745;28;20521;-58
2023/01/28 05:53:52;;;;;;;1.05;0.20;;;;;;;;;;5096334;28;20015;-60
2023/01/28 05:56:17;;;;;;;1.50;0.30;;;;;;;;;;5099064;28;20412;-65
2023/01/28 05:58:43;;;;;;;4.95;0.40;;;;;;;;;;5099118;28;20040;-62
2023/01/28 06:01:09;;;;;;;2.03;0.20;;;;;;;;;;5096847;28;20439;-58
2023/01/28 06:03:35;;;;;;;4.72;0.50;;;;;;;;;;5096645;28;20017;-59
2023/01/28 06:06:00;;;;;;;0.55;0.20;;;;;;;;;;5095003;28;20059;-64
2023/01/28 06:08:25;;;;;;;3.63;0.43;;;;;;;;;;5097198;28;20027;-57
2023/01/28 06:10:52;;;;;;;1.08;0.10;;;;;;;;;;5096341;28;20048;-59
2023/01/28 06:13:18;;;;;;;1.75;0.15;;;;;;;;;;5095500;28;20468;-57
2023/01/28 06:15:43;;;;;;;1.75;0.80;;;;;;;;;;5097042;28;20024;-64
2023/01/28 06:18:09;;;;;;;1.80;0.50;;;;;;;;;;5094983;28;20567;-57
2023/01/28 06:20:34;;;;;;;4.47;0.57;;;;;;;;;;5096965;28;20019;-59
2023/01/28 06:22:59;;;;;;;1.38;0.22;;;;;;;;;;5095367;28;20012;-62
2023/01/28 06:25:25;;;;;;;3.25;0.20;;;;;;;;;;5095647;28;20016;-57
2023/01/28 06:27:50;;;;;;;4.10;0.10;;;;;;;;;;5097059;28;20024;-64
2023/01/28 06:30:17;;;;;;;1.00;0.10;;;;;;;;;;5096585;28;20012;-58
2023/01/28 06:32:43;;;;;;;2.88;0.43;;;;;;;;;;5095095;28;20385;-59
2023/01/28 06:35:10;;;;;;;6.22;0.20;;;;;;;;;;5095299;28;20024;-58
2023/01/28 06:37:36;;;;;;;0.22;0.05;;;;;;;;;;5095550;28;20410;-61
2023/01/28 06:40:02;;;;;;;1.40;0.25;;;;;;;;;;5095045;28;20085;-58
2023/01/28 06:42:27;;;;;;;1.67;0.38;;;;;;;;;;5094903;28;20494;-58
2023/01/28 06:44:53;;;;;;;5.18;0.25;;;;;;;;;;5094106;28;20023;-56
2023/01/28 06:47:18;;;;;;;2.22;0.40;;;;;;;;;;5095214;28;20016;-59
2023/01/28 06:49:44;;;;;;;2.90;0.22;;;;;;;;;;5094093;28;20077;-57
2023/01/28 06:52:09;;;;;;;4.07;0.40;;;;;;;;;;5093991;28;20020;-58
2023/01/28 06:54:35;;;;;;;2.55;0.50;;;;;;;;;;5095407;28;20073;-60
2023/01/28 06:57:00;;;;;;;1.08;0.20;;;;;;;;;;5093472;28;20028;-58
2023/01/28 06:59:26;;;;;;;4.93;0.80;;;;;;;;;;5094961;28;20027;-60
2023/01/28 07:01:51;;;;;;;4.65;0.30;;;;;;;;;;5094559;28;20044;-57
2023/01/28 07:04:16;;;;;;;0.70;0.10;;;;;;;;;;5095266;28;20034;-58
2023/01/28 07:06:42;;;;;;;2.60;0.32;;;;;;;;;;5094402;28;20082;-58
2023/01/28 07:09:07;;;;;;;6.03;0.65;;;;;;;;;;5094546;28;20035;-57
2023/01/28 07:11:33;;;;;;;3.30;0.47;;;;;;;;;;5095279;28;20381;-58
2023/01/28 07:13:58;;;;;;;7.60;0.70;;;;;;;;;;5093543;28;20028;-58
2023/01/28 07:16:24;;;;;;;3.15;0.52;;;;;;;;;;5094839;28;20032;-60
2023/01/28 07:18:50;;;;;;;4.45;0.80;;;;;;;;;;5095961;28;20495;-60
2023/01/28 07:21:17;;;;;;;3.10;0.28;;;;;;;;;;5096054;28;20135;-59
2023/01/28 07:23:42;;;;;;;2.45;0.30;;;;;;;;;;5095576;28;20016;-60
2023/01/28 07:26:08;;;;;;;2.67;0.40;;;;;;;;;;5093814;28;20070;-57
2023/01/28 07:28:33;;;;;;;5.85;1.00;;;;;;;;;;5092917;28;20012;-57
2023/01/28 07:30:59;;;;;;;1.27;0.28;;;;;;;;;;5092994;28;20073;-66
2023/01/28 07:33:24;;;;;;;8.23;0.75;;;;;;;;;;5096932;28;20349;-61
2023/01/28 07:35:50;;;;;;;3.88;0.70;;;;;;;;;;5097242;28;20044;-60
2023/01/28 07:38:15;;;;;;;14.15;2.13;;;;;;;;;;5094595;28;20468;-64
2023/01/28 07:40:44;;;;;;;3.60;1.23;;;;;;;;;;5095014;28;20098;-61
2023/01/28 07:43:10;;;;;;;5.40;0.50;;;;;;;;;;5092400;28;20020;-58
2023/01/28 07:45:35;;;;;;;3.33;0.57;;;;;;;;;;5094176;28;20013;-58
2023/01/28 07:48:02;;;;;;;2.70;0.57;;;;;;;;;;5092967;28;20031;-58
2023/01/28 07:50:28;;;;;;;1.85;0.43;;;;;;;;;;5093997;28;20380;-57
2023/01/28 07:52:54;;;;;;;3.88;0.35;;;;;;;;;;5097017;28;20024;-61
2023/01/28 07:55:20;;;;;;;4.57;1.00;;;;;;;;;;5097055;28;20016;-60
2023/01/28 07:57:51;;;;;;;5.30;0.68;;;;;;;;;;5095746;28;20013;-58
2023/01/28 08:00:18;;;;;;;3.70;0.73;;;;;;;;;;5092997;28;20155;-59
2023/01/28 08:02:46;;;;;;;2.42;0.82;;;;;;;;;;5092450;28;20028;-60
2023/01/28 08:05:20;;;;;;;13.95;1.23;;;;;;;;;;5093335;28;20532;-61
2023/01/28 08:07:50;;;;;;;6.27;1.23;;;;;;;;;;5094376;28;20028;-60
2023/01/28 08:10:16;;;;;;;2.05;0.70;;;;;;;;;;5096128;28;20075;-58
2023/01/28 08:13:01;;;;;;;5.65;1.35;;;;;;;;;;5093686;28;20020;-58
2023/01/28 08:15:27;;;;;;;;;;;;;;;;;;5091855;28;20032;-59
2023/01/28 08:17:53;;;;;;;9.82;0.80;;;;;;;;;;5093353;28;20410;-58
2023/01/28 08:20:19;;;;;;;3.13;1.00;;;;;;;;;;5093283;28;20500;-58
2023/01/28 08:22:45;;;;;;;8.25;1.20;;;;;;;;;;5093261;28;20016;-59
2023/01/28 08:25:11;;;;;;;6.25;1.08;;;;;;;;;;5092040;28;20468;-60
2023/01/28 08:27:36;;;;;;;6.75;0.85;;;;;;;;;;5093302;28;20099;-57
2023/01/28 08:30:02;;;;;;;6.97;1.30;;;;;;;;;;5093786;28;20043;-59
2023/01/28 08:32:29;;;;;;;4.05;0.80;;;;;;;;;;5092218;28;20536;-58
2023/01/28 08:34:55;;;;;;;3.97;0.57;;;;;;;;;;5091740;28;20020;-60
2023/01/28 08:37:20;;;;;;;4.25;1.20;;;;;;;;;;5091374;28;20028;-62
2023/01/28 08:39:46;;;;;;;3.63;0.98;;;;;;;;;;5091974;28;20306;-60
2023/01/28 08:42:11;;;;;;;10.13;1.20;;;;;;;;;;5093443;28;20016;-58
2023/01/28 08:44:36;;;;;;;7.05;1.05;;;;;;;;;;5093250;28;20103;-60
2023/01/28 08:47:02;;;;;;;4.88;0.95;;;;;;;;;;5091923;28;20031;-58
2023/01/28 08:49:27;;;;;;;1.42;0.45;;;;;;;;;;5091791;28;20028;-58
2023/01/28 08:51:54;;;;;;;5.18;1.10;;;;;;;;;;5091868;28;20042;-57
2023/01/28 08:54:19;;;;;;;5.75;1.10;;;;;;;;;;5093948;28;20564;-57
2023/01/28 08:56:47;;;;;;;4.28;0.80;;;;;;;;;;5093188;28;20114;-59
2023/01/28 08:59:12;;;;;;;14.30;0.95;;;;;;;;;;5093362;28;20108;-58
2023/01/28 09:01:38;;;;;;;6.07;1.40;;;;;;;;;;5091890;28;20455;-58
2023/01/28 09:04:04;;;;;;;5.53;1.42;;;;;;;;;;5091769;28;20024;-59
2023/01/28 09:06:29;;;;;;;7.90;1.20;;;;;;;;;;5092467;28;20091;-59
2023/01/28 09:08:58;;;;;;;4.32;0.85;;;;;;;;;;5093488;28;20023;-58
2023/01/28 09:11:23;;;;;;;12.25;1.17;;;;;;;;;;5094856;28;20380;-59
2023/01/28 09:13:50;;;;;;;9.07;1.83;;;;;;;;;;5092367;28;20020;-59
2023/01/28 09:16:15;;;;;;;3.00;1.08;;;;;;;;;;5092826;28;20169;-57
2023/01/28 09:18:41;;;;;;;6.38;1.20;;;;;;;;;;5093197;28;20489;-59
2023/01/28 09:21:07;;;;;;;3.28;0.70;;;;;;;;;;5091282;28;20034;-59
2023/01/28 09:23:37;;;;;;;3.20;0.82;;;;;;;;;;5093208;28;20020;-59
2023/01/28 09:26:03;;;;;;;6.05;1.42;;;;;;;;;;5094584;28;20024;-59
2023/01/28 09:28:30;;;;;;;7.60;1.42;;;;;;;;;;5096878;28;20019;-58
2023/01/28 09:31:03;;;;;;;2.35;1.00;;;;;;;;;;5095718;28;20111;-60
2023/01/28 09:33:28;;;;;;;6.47;1.20;;;;;;;;;;5095875;28;20024;-58
2023/01/28 09:35:54;;;;;;;3.80;0.95;;;;;;;;;;5097039;28;20038;-60
2023/01/28 09:38:19;;;;;;;4.57;0.88;;;;;;;;;;5095497;28;20042;-57
2023/01/28 09:40:45;;;;;;;3.25;0.77;;;;;;;;;;5096578;28;20020;-58
2023/01/28 09:43:24;;;;;;;3.30;1.00;;;;;;;;;;5096331;28;20056;-58
2023/01/28 09:45:51;;;;;;;5.85;1.00;;;;;;;;;;5096563;28;20020;-57
2023/01/28 09:48:20;;;;;;;6.13;1.02;;;;;;;;;;5096153;28;20027;-59
2023/01/28 09:50:47;;;;;;;6.20;1.02;;;;;;;;;;5094849;28;20503;-59
2023/01/28 09:53:45;;;;;;;1.98;0.80;;;;;;;;;;5096081;28;20024;-58
2023/01/28 09:56:49;;;;;;;6.82;1.40;;;;;;;;;;5050430;28;20404;-58
2023/01/28 09:59:19;;;;;;;8.20;1.90;;;;;;;;;;5016996;28;20482;-59
2023/01/28 10:01:50;;;;;;;7.40;1.08;;;;;;;;;;5033815;28;20028;-57
2023/01/28 10:04:16;;;;;;;3.42;1.00;;;;;;;;;;5066911;28;20495;-60
2023/01/28 10:06:50;;;;;;;2.03;1.25;;;;;;;;;;5096016;28;20040;-58
2023/01/28 10:09:33;;;;;;;5.72;1.48;;;;;;;;;;5096100;28;20466;-58
2023/01/28 10:12:03;;;;;;;4.97;1.17;;;;;;;;;;5094156;28;20043;-58
2023/01/28 10:14:32;;;;;;;8.23;1.15;;;;;;;;;;5094439;28;20107;-57
2023/01/28 10:17:00;;;;;;;4.50;1.30;;;;;;;;;;5095591;28;20031;-59
2023/01/28 10:19:29;;;;;;;3.10;0.95;;;;;;;;;;5095925;28;20126;-57
2023/01/28 10:21:58;;;;;;;3.47;0.90;;;;;;;;;;5094926;28;20469;-58
2023/01/28 10:24:48;;;;;;;4.07;1.02;;;;;;;;;;5095429;28;20069;-61
2023/01/28 10:27:19;;;;;;;2.92;0.65;;;;;;;;;;5085684;28;20036;-60
2023/01/28 10:29:46;;;;;;;2.92;0.80;;;;;;;;;;5095198;28;20008;-59
2023/01/28 10:32:11;;;;;;;3.88;1.00;;;;;;;;;;5097567;28;20016;-59
2023/01/28 10:34:37;;;;;;;7.13;0.93;;;;;;;;;;5096225;28;20487;-58
2023/01/28 10:37:02;;;;;;;3.10;0.65;;;;;;;;;;5095973;28;20028;-60
2023/01/28 10:39:28;;;;;;;3.38;0.98;;;;;;;;;;5097587;28;20027;-60
2023/01/28 10:41:54;;;;;;;5.18;0.93;;;;;;;;;;5097528;28;20012;-64
2023/01/28 10:44:35;;;;;;;2.97;0.45;;;;;;;;;;5096849;28;20069;-59
2023/01/28 10:47:03;;;;;;;9.38;1.08;;;;;;;;;;5093980;28;20030;-61
2023/01/28 10:49:30;;;;;;;3.20;0.80;;;;;;;;;;5095224;28;20036;-59
2023/01/28 10:51:55;;;;;;;8.43;1.27;;;;;;;;;;5094886;28;20423;-60
2023/01/28 10:54:24;;;;;;;5.38;1.95;;;;;;;;;;5094845;28;20020;-58
2023/01/28 10:56:51;;;;;;;3.83;0.98;;;;;;;;;;5093515;28;20508;-58
2023/01/28 10:59:19;;;;;;;3.67;1.35;;;;;;;;;;5094853;28;20024;-57
2023/01/28 11:02:05;;;;;;;1.42;0.65;;;;;;;;;;5094930;28;20019;-60
2023/01/28 11:04:32;;;;;;;2.58;0.80;;;;;;;;;;5093058;28;20166;-59
2023/01/28 11:07:15;;;;;;;3.65;1.15;;;;;;;;;;5093879;28;20079;-59
2023/01/28 11:09:44;;;;;;;8.00;0.73;;;;;;;;;;5097394;28;20473;-59
2023/01/28 11:12:18;;;;;;;4.93;0.73;;;;;;;;;;5095380;28;20028;-59
2023/01/28 11:14:57;;;;;;;4.10;0.50;;;;;;;;;;5095494;28;20030;-59
2023/01/28 11:17:24;;;;;;;4.13;0.70;;;;;;;;;;5094293;28;20656;-59
2023/01/28 11:19:51;;;;;;;3.83;0.80;;;;;;;;;;5094247;28;20048;-58
2023/01/28 11:22:29;;;;;;;5.38;0.93;;;;;;;;;;5094705;28;20023;-59
2023/01/28 11:24:55;;;;;;;2.95;1.67;;;;;;;;;;5094234;28;20031;-58
2023/01/28 11:27:25;;;;;;;6.65;0.90;;;;;;;;;;5094189;28;20016;-58
2023/01/28 11:29:51;;;;;;;1.80;0.65;;;;;;;;;;5092869;28;20111;-58
2023/01/28 11:32:20;;;;;;;3.20;0.80;;;;;;;;;;5093996;28;20123;-58
2023/01/28 11:34:51;;;;;;;6.63;1.00;;;;;;;;;;5094113;28;20027;-58
2023/01/28 11:37:19;;;;;;;6.97;0.98;;;;;;;;;;5094206;28;20035;-59
2023/01/28 11:39:45;;;;;;;5.47;0.80;;;;;;;;;;5092597;28;20024;-57
2023/01/28 11:42:13;;;;;;;5.72;0.57;;;;;;;;;;5094136;28;20027;-58
2023/01/28 11:44:39;;;;;;;3.25;0.70;;;;;;;;;;5094332;28;20069;-58
2023/01/28 11:47:40;;;;;;;6.80;0.98;;;;;;;;;;5093366;28;20020;-59
2023/01/28 11:50:24;;;;;;;3.38;0.50;;;;;;;;;;5031440;28;20375;-59
2023/01/28 11:53:08;;;;;;;6.28;0.80;;;;;;;;;;5085796;28;20036;-58
2023/01/28 11:55:40;;;;;;;6.30;0.93;;;;;;;;;;5092461;28;20024;-60
2023/01/28 11:58:19;;;;;;;5.90;1.10;;;;;;;;;;5093590;28;20018;-58
2023/01/28 12:01:02;;;;;;;5.88;1.08;;;;;;;;;;5092387;28;20028;-59
2023/01/28 12:03:30;;;;;;;8.70;0.80;;;;;;;;;;5094022;28;20354;-59
2023/01/28 12:06:01;;;;;;;5.47;0.70;;;;;;;;;;5093664;28;20048;-59
2023/01/28 12:08:39;;;;;;;7.95;1.20;;;;;;;;;;5093579;28;20034;-60
2023/01/28 12:11:19;;;;;;;5.97;0.65;;;;;;;;;;5092631;28;20020;-58
2023/01/28 12:13:51;;;;;;;4.80;0.90;;;;;;;;;;5092357;28;20020;-61
2023/01/28 12:16:20;;;;;;;4.10;0.90;;;;;;;;;;5093819;28;20032;-59
2023/01/28 12:19:04;;;;;;;4.28;0.60;;;;;;;;;;5094000;28;20028;-61
2023/01/28 12:21:41;;;;;;;10.50;1.42;;;;;;;;;;5094894;28;20024;-62
2023/01/28 12:24:24;;;;;;;6.78;1.98;;;;;;;;;;5093602;28;20012;-58
2023/01/28 12:26:52;;;;;;;3.35;0.75;;;;;;;;;;5093115;28;20026;-58
2023/01/28 12:29:26;;;;;;;7.45;1.27;;;;;;;;;;5092935;28;20023;-58
2023/01/28 12:32:07;;;;;;;6.65;1.02;;;;;;;;;;5091858;28;20020;-59
2023/01/28 12:34:32;;;;;;;5.57;0.60;;;;;;;;;;5093421;28;20031;-62
2023/01/28 12:37:15;;;;;;;4.18;1.20;;;;;;;;;;5094936;28;20024;-59
2023/01/28 12:40:00;;;;;;;4.30;0.52;;;;;;;;;;5092195;28;20123;-60
2023/01/28 12:42:32;;;;;;;5.80;0.95;;;;;;;;;;5091623;28;20155;-59
2023/01/28 12:45:24;;;;;;;3.92;0.57;;;;;;;;;;5092584;28;20020;-58
2023/01/28 12:47:54;;;;;;;6.78;0.95;;;;;;;;;;5069161;28;20078;-59
2023/01/28 12:50:23;;;;;;;9.30;1.25;;;;;;;;;;5092829;28;20019;-60
2023/01/28 12:52:52;;;;;;;4.68;1.08;;;;;;;;;;5091882;28;20503;-59
2023/01/28 12:55:21;;;;;;;7.50;1.48;;;;;;;;;;5092556;28;20016;-61
2023/01/28 12:57:47;;;;;;;7.05;1.30;;;;;;;;;;5091426;28;20036;-58
2023/01/28 13:00:27;;;;;;;7.03;1.17;;;;;;;;;;5094607;28;20020;-60
2023/01/28 13:03:13;;;;;;;4.95;0.73;;;;;;;;;;5096023;28;20020;-60
2023/01/28 13:05:42;;;;;;;6.80;1.33;;;;;;;;;;5097223;28;20110;-60
2023/01/28 13:08:28;;;;;;;3.50;0.77;;;;;;;;;;5095615;28;20269;-60
2023/01/28 13:10:55;;;;;;;7.03;1.40;;;;;;;;;;5096910;28;20028;-61
2023/01/28 13:13:29;;;;;;;7.75;0.85;;;;;;;;;;5097485;28;20012;-59
2023/01/28 13:15:55;;;;;;;3.85;0.90;;;;;;;;;;5095739;28;20043;-60
2023/01/28 13:18:30;;;;;;;4.47;0.95;;;;;;;;;;5096370;28;20028;-60
2023/01/28 13:20:56;;;;;;;5.93;1.42;;;;;;;;;;5096880;28;20052;-61
2023/01/28 13:23:26;;;;;;;8.23;1.10;;;;;;;;;;5096838;28;20047;-60
2023/01/28 13:25:54;;;;;;;7.45;1.05;;;;;;;;;;5096553;28;20098;-60
2023/01/28 13:28:25;;;;;;;2.83;0.70;;;;;;;;;;5095243;28;20066;-63
2023/01/28 13:30:59;;;;;;;2.33;0.80;;;;;;;;;;5098311;28;20020;-62
2023/01/28 13:33:27;;;;;;;9.20;1.52;;;;;;;;;;5099391;28;20027;-62
2023/01/28 13:35:54;;;;;;;5.80;0.70;;;;;;;;;;5099093;28;20028;-59
2023/01/28 13:38:20;;;;;;;6.55;1.10;;;;;;;;;;5097225;28;20031;-60
2023/01/28 13:41:05;;;;;;;6.30;1.10;;;;;;;;;;5096645;28;20428;-59
2023/01/28 13:43:33;;;;;;;4.90;1.13;;;;;;;;;;5095207;28;20044;-59
2023/01/28 13:46:10;;;;;;;5.13;1.42;;;;;;;;;;5097067;28;20111;-62
2023/01/28 13:48:41;;;;;;;5.15;1.35;;;;;;;;;;5099472;28;20024;-63
2023/01/28 13:51:18;;;;;;;10.30;2.42;;;;;;;;;;5095442;28;20024;-59
2023/01/28 13:53:54;;;;;;;5.93;1.35;;;;;;;;;;5094770;28;20027;-56
2023/01/28 13:56:29;;;;;;;6.22;1.73;;;;;;;;;;5095568;28;20028;-59
2023/01/28 13:59:04;;;;;;;4.15;0.95;;;;;;;;;;5096153;28;20017;-59
2023/01/28 14:01:37;;;;;;;7.28;1.67;;;;;;;;;;5096497;28;20089;-58
2023/01/28 14:04:13;;;;;;;3.83;1.20;;;;;;;;;;5096086;28;20066;-59
2023/01/28 14:06:57;;;;;;;8.38;2.10;;;;;;;;;;5095679;28;20055;-58
2023/01/28 14:09:23;;;;;;;5.72;1.25;;;;;;;;;;5094311;28;20066;-57
2023/01/28 14:12:07;;;;;;;4.03;1.08;;;;;;;;;;5094875;28;20492;-61
2023/01/28 14:14:35;;;;;;;3.50;0.80;;;;;;;;;;5095933;28;20016;-60
2023/01/28 14:17:01;;;;;;;4.80;0.73;;;;;;;;;;5093771;28;20123;-63
2023/01/28 14:19:33;;;;;;;4.07;0.80;;;;;;;;;;5094268;28;20115;-62
2023/01/28 14:22:05;;;;;;;9.02;1.15;;;;;;;;;;5095239;28;20035;-60
2023/01/28 14:24:30;;;;;;;6.32;1.20;;;;;;;;;;5093707;28;20491;-61
2023/01/28 14:27:13;;;;;;;6.90;0.90;;;;;;;;;;5095355;28;20024;-57
2023/01/28 14:29:41;;;;;;;3.80;0.70;;;;;;;;;;5094737;28;20027;-60
2023/01/28 14:32:20;;;;;;;4.78;1.10;;;;;;;;;;5095656;28;20016;-61
2023/01/28 14:34:47;;;;;;;4.97;0.95;;;;;;;;;;5094493;28;20074;-59
2023/01/28 14:37:20;;;;;;;5.90;0.90;;;;;;;;;;5095340;28;20515;-61
2023/01/28 14:39:51;;;;;;;13.25;1.48;;;;;;;;;;5095395;28;20374;-60
2023/01/28 14:42:22;;;;;;;5.22;0.90;;;;;;;;;;5094275;28;20333;-59
2023/01/28 14:44:50;;;;;;;8.88;2.75;;;;;;;;;;5096180;28;20019;-60
2023/01/28 14:47:31;;;;;;;6.30;0.90;;;;;;;;;;5096289;28;20127;-59
2023/01/28 14:50:00;;;;;;;3.17;0.77;;;;;;;;;;5095432;28;20385;-59
2023/01/28 14:53:04;;;;;;;4.15;1.55;;;;;;;;;;5094943;28;20161;-64
2023/01/28 14:55:41;;;;;;;6.90;0.85;;;;;;;;;;5016772;28;20040;-64
2023/01/28 14:58:10;;;;;;;4.70;1.13;;;;;;;;;;5032348;28;20394;-59
2023/01/28 15:00:38;;;;;;;8.07;1.27;;;;;;;;;;5059864;28;20035;-62
2023/01/28 15:03:17;;;;;;;4.65;1.02;;;;;;;;;;5097850;28;20024;-58
2023/01/28 15:05:42;;;;;;;4.85;1.00;;;;;;;;;;5096100;28;20571;-58
2023/01/28 15:08:18;;;;;;;5.22;1.25;;;;;;;;;;5094622;28;20036;-58
2023/01/28 15:10:43;;;;;;;7.03;1.75;;;;;;;;;;5094481;28;20046;-63
2023/01/28 15:13:11;;;;;;;3.78;1.45;;;;;;;;;;5093315;28;20531;-61
2023/01/28 15:15:40;;;;;;;9.30;1.55;;;;;;;;;;5094595;28;20483;-60
2023/01/28 15:18:17;;;;;;;7.25;1.88;;;;;;;;;;5094088;28;20023;-60
2023/01/28 15:20:47;;;;;;;4.03;1.20;;;;;;;;;;5095015;28;20103;-59
2023/01/28 15:23:16;;;;;;;8.93;1.40;;;;;;;;;;5093509;28;20020;-59
2023/01/28 15:25:42;;;;;;;8.70;1.13;;;;;;;;;;5095414;28;20368;-58